createdAt,value
2022-09-20T00:01:40.209Z,90.48
2022-09-20T00:04:08.202Z,89.88
2022-09-20T00:06:35.149Z,89.99
2022-09-20T00:09:03.322Z,89.93
2022-09-20T00:11:32.207Z,89.97
2022-09-20T00:14:01.255Z,89.68
2022-09-20T00:16:34.478Z,89.69
2022-09-20T00:19:05.634Z,89.71
2022-09-20T00:21:34.175Z,90.20
2022-09-20T00:24:01.740Z,90.26
2022-09-20T00:26:29.069Z,90.07
2022-09-20T00:28:57.295Z,90.05
2022-09-20T00:31:23.820Z,89.87
2022-09-20T00:34:13.082Z,89.78
2022-09-20T00:36:39.598Z,89.65
2022-09-20T00:39:06.256Z,89.83
2022-09-20T00:41:33.575Z,90.20
2022-09-20T00:44:00.659Z,90.25
2022-09-20T00:46:30.087Z,90.31
2022-09-20T00:49:08.371Z,90.49
2022-09-20T00:51:38.453Z,90.75
2022-09-20T00:54:08.819Z,90.63
2022-09-20T00:56:39.896Z,90.84
2022-09-20T00:59:25.518Z,90.98
2022-09-20T01:01:57.923Z,91.51
2022-09-20T01:04:27.132Z,92.00
2022-09-20T01:06:57.709Z,92.15
2022-09-20T01:09:24.350Z,92.59
2022-09-20T01:11:53.223Z,92.35
2022-09-20T01:14:22.248Z,92.76
2022-09-20T01:16:48.803Z,92.82
2022-09-20T01:19:29.240Z,92.59
2022-09-20T01:21:56.171Z,93.03
2022-09-20T01:24:34.426Z,93.11
2022-09-20T01:27:12.823Z,93.16
2022-09-20T01:29:58.283Z,93.37
2022-09-20T01:32:35.580Z,93.62
2022-09-20T01:35:02.502Z,93.71
2022-09-20T01:37:36.558Z,93.62
2022-09-20T01:40:10.839Z,93.55
2022-09-20T01:42:44.251Z,93.38
2022-09-20T01:45:16.173Z,92.92
2022-09-20T01:48:07.682Z,93.10
2022-09-20T01:50:51.229Z,92.77
2022-09-20T01:53:36.352Z,92.76
2022-09-20T01:56:18.539Z,92.42
2022-09-20T01:59:22.586Z,92.08
2022-09-20T02:01:56.000Z,91.62
2022-09-20T02:05:08.020Z,91.35
2022-09-20T02:08:20.328Z,91.18
2022-09-20T02:10:49.933Z,90.85
2022-09-20T02:13:25.467Z,90.81
2022-09-20T02:16:27.179Z,91.25
2022-09-20T02:19:14.833Z,91.14
2022-09-20T02:22:00.103Z,91.02
2022-09-20T02:24:56.727Z,90.96
2022-09-20T02:27:30.765Z,90.87
2022-09-20T02:30:23.271Z,90.86
2022-09-20T02:33:08.218Z,90.48
2022-09-20T02:35:49.843Z,90.54
2022-09-20T02:38:33.590Z,90.32
2022-09-20T02:41:24.031Z,90.16
2022-09-20T02:44:09.381Z,89.91
2022-09-20T02:46:54.661Z,90.17
2022-09-20T02:49:39.118Z,90.41
2022-09-20T02:52:44.305Z,90.30
2022-09-20T02:55:49.762Z,90.15
2022-09-20T02:58:28.756Z,90.38
2022-09-20T03:01:06.191Z,90.53
2022-09-20T03:04:14.222Z,90.57
2022-09-20T03:07:03.786Z,90.60
2022-09-20T03:09:43.716Z,90.50
2022-09-20T03:12:21.915Z,90.24
2022-09-20T03:15:00.439Z,90.34
2022-09-20T03:17:47.319Z,90.28
2022-09-20T03:20:35.609Z,90.54
2022-09-20T03:23:27.029Z,90.36
2022-09-20T03:26:26.371Z,90.39
2022-09-20T03:29:08.370Z,90.27
2022-09-20T03:31:50.358Z,90.73
2022-09-20T03:34:41.578Z,90.50
2022-09-20T03:37:29.809Z,90.21
2022-09-20T03:40:17.776Z,90.76
2022-09-20T03:42:51.428Z,90.93
2022-09-20T03:45:54.267Z,90.40
2022-09-20T03:48:26.761Z,90.46
2022-09-20T03:51:05.582Z,90.30
2022-09-20T03:54:20.519Z,90.20
2022-09-20T03:56:58.771Z,90.16
2022-09-20T04:00:04.577Z,90.49
2022-09-20T04:02:55.486Z,90.67
2022-09-20T04:05:38.821Z,90.68
2022-09-20T04:08:40.335Z,90.15
2022-09-20T04:11:30.503Z,90.27
2022-09-20T04:14:18.374Z,90.14
2022-09-20T04:17:20.899Z,90.15
2022-09-20T04:20:03.727Z,90.44
2022-09-20T04:22:30.400Z,90.35
2022-09-20T04:25:05.740Z,90.53
2022-09-20T04:27:46.618Z,90.75
2022-09-20T04:30:29.670Z,90.91
2022-09-20T04:33:02.342Z,90.70
2022-09-20T04:36:13.907Z,90.97
2022-09-20T04:38:40.873Z,90.88
2022-09-20T04:41:32.537Z,90.74
2022-09-20T04:44:30.884Z,90.88
2022-09-20T04:47:16.613Z,90.82
2022-09-20T04:50:22.225Z,90.89
2022-09-20T04:53:14.807Z,90.62
2022-09-20T04:56:15.365Z,90.68
2022-09-20T04:59:06.386Z,90.64
2022-09-20T05:01:58.375Z,90.84
2022-09-20T05:04:41.519Z,90.80
2022-09-20T05:07:26.024Z,91.03
2022-09-20T05:10:35.081Z,90.78
2022-09-20T05:13:46.390Z,90.75
2022-09-20T05:16:28.498Z,90.95
2022-09-20T05:19:07.512Z,91.08
2022-09-20T05:21:55.887Z,90.96
2022-09-20T05:25:08.806Z,90.73
2022-09-20T05:27:53.164Z,90.78
2022-09-20T05:30:43.649Z,90.85
2022-09-20T05:33:22.166Z,90.93
2022-09-20T05:35:56.728Z,90.88
2022-09-20T05:38:42.824Z,90.81
2022-09-20T05:41:31.471Z,90.83
2022-09-20T05:44:19.579Z,90.94
2022-09-20T05:47:20.528Z,90.86
2022-09-20T05:50:09.834Z,90.86
2022-09-20T05:53:04.266Z,90.55
2022-09-20T05:55:55.055Z,90.61
2022-09-20T05:58:36.079Z,90.63
2022-09-20T06:01:15.147Z,90.67
2022-09-20T06:03:54.441Z,90.19
2022-09-20T06:06:38.054Z,90.36
2022-09-20T06:09:28.645Z,90.61
2022-09-20T06:12:21.923Z,90.28
2022-09-20T06:14:48.373Z,90.32
2022-09-20T06:17:24.460Z,90.30
2022-09-20T06:20:23.161Z,89.98
2022-09-20T06:22:54.568Z,90.26
2022-09-20T06:25:34.497Z,89.67
2022-09-20T06:28:16.438Z,89.96
2022-09-20T06:33:45.773Z,89.69
2022-09-20T06:36:39.658Z,89.59
2022-09-20T06:39:30.753Z,89.32
2022-09-20T06:41:58.027Z,89.40
2022-09-20T06:44:24.448Z,89.20
2022-09-20T06:46:54.297Z,89.07
2022-09-20T06:49:21.880Z,89.35
2022-09-20T06:51:50.448Z,88.83
2022-09-20T06:54:20.046Z,88.81
2022-09-20T06:56:47.772Z,88.78
2022-09-20T06:59:15.241Z,88.65
2022-09-20T07:01:42.780Z,88.59
2022-09-20T07:04:12.506Z,88.50
2022-09-20T07:06:39.935Z,88.10
2022-09-20T07:09:06.996Z,87.77
2022-09-20T07:11:35.105Z,87.44
2022-09-20T07:14:02.607Z,87.69
2022-09-20T07:16:29.275Z,87.37
2022-09-20T07:18:56.842Z,86.65
2022-09-20T07:21:23.977Z,84.39
2022-09-20T07:23:51.371Z,82.82
2022-09-20T07:26:19.889Z,82.71
2022-09-20T07:28:46.545Z,79.71
2022-09-20T07:31:13.089Z,79.37
2022-09-20T07:33:39.527Z,80.21
2022-09-20T07:36:06.376Z,81.39
2022-09-20T07:38:32.909Z,81.93
2022-09-20T07:41:02.304Z,83.58
2022-09-20T07:43:30.377Z,82.48
2022-09-20T07:45:59.352Z,81.87
2022-09-20T07:48:36.838Z,80.60
2022-09-20T07:51:08.756Z,81.37
2022-09-20T07:53:36.077Z,81.50
2022-09-20T07:56:08.032Z,80.79
2022-09-20T07:58:35.854Z,79.37
2022-09-20T08:01:07.021Z,80.52
2022-09-20T08:03:34.906Z,78.94
2022-09-20T08:06:05.730Z,77.38
2022-09-20T08:08:33.708Z,74.07
2022-09-20T08:11:15.522Z,74.16
2022-09-20T08:16:39.432Z,72.19
2022-09-20T08:19:06.025Z,72.16
2022-09-20T08:21:34.270Z,73.13
2022-09-20T08:24:01.067Z,72.73
2022-09-20T08:26:29.602Z,71.03
2022-09-20T08:28:57.955Z,70.17
2022-09-20T08:31:27.162Z,69.56
2022-09-20T08:33:54.732Z,69.18
2022-09-20T08:36:25.980Z,66.91
2022-09-20T08:41:54.239Z,64.25
2022-09-20T08:44:35.205Z,66.96
2022-09-20T08:47:22.743Z,69.87
2022-09-20T08:49:57.012Z,70.53
2022-09-20T08:52:36.933Z,69.80
2022-09-20T08:55:13.656Z,70.12
2022-09-20T08:57:40.177Z,69.77
2022-09-20T09:00:07.678Z,69.97
2022-09-20T09:02:34.497Z,71.05
2022-09-20T09:05:02.677Z,71.33
2022-09-20T09:07:29.655Z,72.01
2022-09-20T09:09:56.728Z,72.22
2022-09-20T09:12:28.867Z,71.43
2022-09-20T09:15:03.477Z,70.21
2022-09-20T09:17:30.994Z,72.33
2022-09-20T09:19:59.720Z,72.80
2022-09-20T09:22:44.103Z,71.89
2022-09-20T09:25:10.737Z,73.04
2022-09-20T09:27:50.803Z,73.80
2022-09-20T09:30:27.104Z,74.74
2022-09-20T09:33:16.353Z,74.68
2022-09-20T09:35:43.748Z,74.88
2022-09-20T09:38:24.216Z,75.04
2022-09-20T09:41:00.270Z,74.73
2022-09-20T09:43:33.557Z,75.39
2022-09-20T09:46:23.792Z,76.01
2022-09-20T09:49:13.120Z,75.59
2022-09-20T09:51:43.569Z,75.62
2022-09-20T09:54:19.734Z,75.85
2022-09-20T09:57:01.853Z,75.51
2022-09-20T09:59:49.289Z,75.77
2022-09-20T10:02:37.804Z,75.76
2022-09-20T10:05:20.704Z,75.05
2022-09-20T10:07:51.228Z,74.37
2022-09-20T10:10:51.078Z,73.50
2022-09-20T10:13:27.712Z,72.48
2022-09-20T10:16:13.103Z,71.88
2022-09-20T10:19:06.511Z,70.32
2022-09-20T10:21:57.000Z,66.86
2022-09-20T10:24:40.707Z,62.66
2022-09-20T10:27:28.568Z,61.03
2022-09-20T10:30:13.939Z,63.68
2022-09-20T10:32:45.827Z,67.10
2022-09-20T10:35:26.437Z,65.35
2022-09-20T10:38:19.803Z,65.47
2022-09-20T10:41:27.193Z,65.36
2022-09-20T10:44:19.070Z,66.90
2022-09-20T10:46:53.619Z,65.90
2022-09-20T10:49:28.172Z,65.64
2022-09-20T10:52:17.703Z,66.73
2022-09-20T10:54:56.634Z,66.77
2022-09-20T10:57:48.326Z,65.27
2022-09-20T11:00:35.800Z,65.75
2022-09-20T11:03:31.300Z,65.62
2022-09-20T11:06:13.058Z,66.33
2022-09-20T11:08:42.625Z,66.76
2022-09-20T11:11:13.490Z,66.71
2022-09-20T11:13:45.815Z,67.55
2022-09-20T11:16:18.510Z,68.32
2022-09-20T11:19:09.257Z,70.64
2022-09-20T11:21:47.030Z,72.32
2022-09-20T11:24:39.622Z,73.16
2022-09-20T11:27:14.503Z,72.94
2022-09-20T11:29:50.208Z,71.97
2022-09-20T11:32:42.297Z,71.32
2022-09-20T11:35:11.916Z,72.93
2022-09-20T11:37:44.615Z,73.12
2022-09-20T11:40:20.402Z,74.17
2022-09-20T11:42:48.129Z,74.54
2022-09-20T11:45:14.814Z,74.59
2022-09-20T11:48:00.605Z,74.99
2022-09-20T11:51:07.109Z,74.59
2022-09-20T11:54:01.736Z,74.78
2022-09-20T11:56:31.911Z,73.89
2022-09-20T11:59:00.951Z,74.11
2022-09-20T12:01:37.394Z,72.98
2022-09-20T12:04:34.153Z,71.19
2022-09-20T12:07:22.138Z,71.40
2022-09-20T12:10:00.674Z,70.92
2022-09-20T12:12:43.243Z,69.34
2022-09-20T12:15:25.099Z,67.29
2022-09-20T12:17:52.427Z,64.23
2022-09-20T12:20:39.792Z,63.02
2022-09-20T12:23:25.071Z,64.75
2022-09-20T12:26:04.821Z,62.53
2022-09-20T12:28:37.863Z,59.76
2022-09-20T12:31:22.491Z,58.81
2022-09-20T12:34:00.110Z,57.96
2022-09-20T12:36:27.361Z,60.05
2022-09-20T12:39:03.878Z,60.98
2022-09-20T12:41:47.573Z,56.94
2022-09-20T12:44:41.491Z,56.93
2022-09-20T12:47:11.040Z,56.23
2022-09-20T12:50:05.218Z,57.54
2022-09-20T12:53:02.491Z,58.12
2022-09-20T12:55:49.967Z,58.72
2022-09-20T12:58:26.104Z,58.29
2022-09-20T13:00:55.949Z,58.36
2022-09-20T13:03:31.986Z,58.59
2022-09-20T13:06:05.622Z,59.35
2022-09-20T13:08:43.393Z,60.26
2022-09-20T13:11:19.237Z,60.69
2022-09-20T13:13:55.659Z,64.26
2022-09-20T13:16:24.386Z,67.15
2022-09-20T13:19:28.501Z,68.29
2022-09-20T13:22:00.785Z,68.61
2022-09-20T13:24:37.084Z,69.41
2022-09-20T13:27:09.036Z,68.60
2022-09-20T13:29:40.093Z,68.21
2022-09-20T13:32:41.772Z,69.21
2022-09-20T13:35:08.488Z,68.44
2022-09-20T13:37:43.053Z,68.19
2022-09-20T13:40:18.724Z,70.06
2022-09-20T13:42:46.841Z,70.78
2022-09-20T13:45:15.173Z,71.56
2022-09-20T13:47:43.572Z,71.73
2022-09-20T13:50:27.788Z,72.76
2022-09-20T13:52:57.099Z,71.99
2022-09-20T13:55:37.435Z,70.45
2022-09-20T13:58:07.609Z,67.39
2022-09-20T14:00:37.177Z,66.06
2022-09-20T14:03:04.138Z,65.44
2022-09-20T14:05:31.616Z,64.11
2022-09-20T14:08:00.634Z,65.57
2022-09-20T14:10:29.089Z,64.42
2022-09-20T14:12:57.197Z,61.00
2022-09-20T14:15:24.133Z,57.27
2022-09-20T14:17:53.337Z,58.24
2022-09-20T14:20:19.995Z,58.83
2022-09-20T14:22:46.603Z,58.67
2022-09-20T14:25:13.007Z,57.86
2022-09-20T14:27:39.850Z,57.17
2022-09-20T14:30:07.602Z,58.63
2022-09-20T14:32:39.540Z,58.54
2022-09-20T14:35:16.869Z,59.36
2022-09-20T14:37:44.690Z,58.31
2022-09-20T14:40:31.001Z,56.81
2022-09-20T14:43:05.658Z,57.09
2022-09-20T14:45:34.770Z,56.32
2022-09-20T14:48:33.167Z,55.84
2022-09-20T14:51:18.991Z,55.68
2022-09-20T14:53:48.005Z,57.26
2022-09-20T14:56:16.261Z,57.53
2022-09-20T14:59:01.373Z,58.12
2022-09-20T15:01:27.990Z,57.80
2022-09-20T15:03:54.849Z,56.91
2022-09-20T15:06:21.377Z,56.06
2022-09-20T15:08:48.028Z,55.17
2022-09-20T15:11:15.943Z,55.38
2022-09-20T15:13:42.533Z,55.77
2022-09-20T15:16:12.320Z,55.56
2022-09-20T15:18:43.113Z,56.47
2022-09-20T15:21:13.215Z,57.33
2022-09-20T15:23:40.574Z,57.51
2022-09-20T15:26:08.910Z,56.28
2022-09-20T15:28:35.385Z,54.99
2022-09-20T15:31:01.914Z,54.98
2022-09-20T15:33:30.736Z,54.35
2022-09-20T15:35:57.537Z,54.92
2022-09-20T15:38:26.831Z,55.26
2022-09-20T15:40:54.081Z,55.08
2022-09-20T15:43:24.250Z,55.52
2022-09-20T15:45:53.460Z,54.61
2022-09-20T15:48:25.162Z,54.27
2022-09-20T15:50:58.868Z,55.59
2022-09-20T15:53:25.407Z,56.94
2022-09-20T15:55:52.282Z,56.41
2022-09-20T15:58:18.794Z,56.30
2022-09-20T16:00:45.939Z,55.74
2022-09-20T16:03:12.771Z,55.95
2022-09-20T16:05:39.487Z,56.26
2022-09-20T16:08:05.928Z,56.15
2022-09-20T16:10:32.797Z,56.61
2022-09-20T16:12:59.388Z,57.51
2022-09-20T16:15:25.833Z,56.59
2022-09-20T16:18:10.952Z,57.37
2022-09-20T16:20:37.396Z,57.66
2022-09-20T16:23:03.888Z,58.74
2022-09-20T16:25:30.383Z,60.09
2022-09-20T16:27:56.877Z,61.63
2022-09-20T16:30:23.351Z,62.16
2022-09-20T16:32:50.741Z,63.05
2022-09-20T16:35:17.211Z,63.81
2022-09-20T16:37:43.735Z,64.46
2022-09-20T16:40:13.153Z,64.41
2022-09-20T16:42:39.648Z,65.47
2022-09-20T16:45:07.237Z,65.72
2022-09-20T16:47:34.044Z,65.85
2022-09-20T16:50:01.382Z,65.91
2022-09-20T16:52:27.866Z,65.65
2022-09-20T16:54:54.370Z,66.44
2022-09-20T16:57:22.385Z,66.67
2022-09-20T16:59:51.845Z,66.80
2022-09-20T17:02:18.410Z,66.58
2022-09-20T17:04:44.979Z,67.26
2022-09-20T17:07:11.584Z,66.87
2022-09-20T17:09:38.122Z,67.72
2022-09-20T17:12:09.169Z,67.23
2022-09-20T17:14:37.103Z,67.44
2022-09-20T17:17:03.622Z,67.56
2022-09-20T17:19:30.120Z,67.72
2022-09-20T17:21:56.579Z,68.08
2022-09-20T17:24:23.493Z,68.54
2022-09-20T17:26:51.073Z,68.73
2022-09-20T17:29:19.402Z,68.64
2022-09-20T17:31:55.282Z,68.87
2022-09-20T17:34:29.601Z,69.00
2022-09-20T17:36:56.263Z,69.72
2022-09-20T17:39:23.238Z,70.00
2022-09-20T17:41:50.646Z,70.04
2022-09-20T17:44:17.635Z,70.58
2022-09-20T17:46:46.240Z,70.95
2022-09-20T17:49:15.929Z,71.35
2022-09-20T17:51:43.512Z,71.45
2022-09-20T17:58:40.800Z,72.20
2022-09-20T18:01:12.884Z,72.07
2022-09-20T18:03:42.561Z,72.22
2022-09-20T18:06:20.092Z,72.46
2022-09-20T18:08:51.376Z,72.94
2022-09-20T18:11:20.981Z,73.41
2022-09-20T18:13:47.594Z,73.33
2022-09-20T18:16:16.022Z,73.33
2022-09-20T18:18:43.723Z,73.25
2022-09-20T18:21:18.421Z,72.96
2022-09-20T18:23:46.264Z,73.65
2022-09-20T18:26:23.977Z,73.68
2022-09-20T18:29:12.373Z,73.95
2022-09-20T18:31:42.248Z,74.11
2022-09-20T18:34:20.384Z,74.87
2022-09-20T18:36:53.167Z,74.49
2022-09-20T18:39:21.901Z,74.75
2022-09-20T18:41:50.450Z,75.32
2022-09-20T18:44:18.522Z,76.64
2022-09-20T18:46:46.223Z,77.05
2022-09-20T18:49:15.066Z,76.68
2022-09-20T18:51:42.766Z,77.34
2022-09-20T18:54:10.652Z,77.21
2022-09-20T18:56:38.501Z,77.18
2022-09-20T18:59:07.721Z,76.55
2022-09-20T19:01:55.702Z,77.15
2022-09-20T19:04:52.091Z,77.85
2022-09-20T19:07:29.302Z,77.90
2022-09-20T19:10:12.076Z,78.75
2022-09-20T19:13:16.111Z,79.01
2022-09-20T19:16:15.123Z,79.44
2022-09-20T19:18:41.564Z,80.23
2022-09-20T19:21:30.971Z,79.24
2022-09-20T19:24:12.604Z,80.00
2022-09-20T19:26:40.098Z,79.97
2022-09-20T19:29:22.960Z,79.72
2022-09-20T19:31:52.116Z,80.34
2022-09-20T19:34:26.834Z,81.13
2022-09-20T19:37:18.688Z,81.36
2022-09-20T19:39:57.708Z,81.39
2022-09-20T19:42:29.965Z,81.97
2022-09-20T19:45:03.839Z,82.09
2022-09-20T19:47:47.294Z,82.14
2022-09-20T19:50:25.311Z,81.77
2022-09-20T19:52:51.989Z,81.54
2022-09-20T19:55:18.935Z,81.66
2022-09-20T19:57:47.289Z,82.51
2022-09-20T20:00:21.046Z,83.07
2022-09-20T20:02:47.928Z,83.47
2022-09-20T20:05:17.839Z,83.45
2022-09-20T20:07:55.488Z,83.68
2022-09-20T20:10:29.203Z,84.59
2022-09-20T20:18:27.869Z,84.00
2022-09-20T20:20:56.659Z,84.58
2022-09-20T20:23:32.484Z,84.66
2022-09-20T20:26:07.717Z,84.68
2022-09-20T20:28:34.615Z,84.59
2022-09-20T20:31:02.387Z,84.79
2022-09-20T20:33:28.987Z,85.14
2022-09-20T20:36:00.879Z,85.22
2022-09-20T20:38:28.863Z,85.63
2022-09-20T20:41:04.625Z,85.64
2022-09-20T20:43:32.994Z,86.46
2022-09-20T20:45:59.674Z,86.91
2022-09-20T20:48:26.617Z,87.79
2022-09-20T20:51:04.036Z,87.71
2022-09-20T20:53:35.892Z,88.00
2022-09-20T20:56:12.131Z,88.57
2022-09-20T20:58:41.244Z,88.16
2022-09-20T21:01:11.998Z,88.41
2022-09-20T21:03:41.347Z,88.86
2022-09-20T21:06:09.106Z,89.62
2022-09-20T21:08:38.174Z,89.72
2022-09-20T21:11:11.577Z,89.81
2022-09-20T21:13:39.518Z,90.59
2022-09-20T21:16:06.359Z,90.84
2022-09-20T21:18:34.463Z,90.49
2022-09-20T21:21:05.317Z,90.78
2022-09-20T21:23:35.570Z,91.41
2022-09-20T21:26:10.956Z,91.28
2022-09-20T21:28:44.308Z,91.46
2022-09-20T21:31:12.729Z,91.29
2022-09-20T21:33:43.856Z,91.39
2022-09-20T21:36:15.711Z,91.21
2022-09-20T21:38:46.093Z,90.79
2022-09-20T21:41:20.111Z,90.87
2022-09-20T21:43:49.045Z,90.91
2022-09-20T21:46:19.145Z,90.53
2022-09-20T21:48:47.581Z,91.31
2022-09-20T21:51:16.431Z,91.51
2022-09-20T21:53:42.946Z,91.67
2022-09-20T21:56:12.320Z,91.73
2022-09-20T21:58:40.100Z,92.07
2022-09-20T22:01:06.624Z,92.31
2022-09-20T22:03:39.759Z,92.49
2022-09-20T22:06:07.460Z,92.74
2022-09-20T22:08:34.154Z,93.08
2022-09-20T22:11:01.835Z,92.91
2022-09-20T22:13:28.509Z,93.14
2022-09-20T22:16:04.146Z,92.65
2022-09-20T22:18:36.177Z,92.65
2022-09-20T22:21:27.382Z,92.55
2022-09-20T22:23:57.613Z,91.95
2022-09-20T22:26:26.871Z,91.93
2022-09-20T22:28:53.574Z,91.93
2022-09-20T22:31:28.502Z,92.47
2022-09-20T22:34:00.739Z,93.10
2022-09-20T22:36:30.128Z,93.29
2022-09-20T22:38:56.691Z,93.07
2022-09-20T22:41:24.116Z,93.08
2022-09-20T22:43:51.232Z,93.05
2022-09-20T22:46:23.257Z,92.89
2022-09-20T22:48:52.951Z,92.87
2022-09-20T22:51:25.182Z,93.35
2022-09-20T22:53:52.726Z,94.13
2022-09-20T22:56:31.400Z,94.64
2022-09-20T22:59:08.257Z,94.78
2022-09-20T23:01:38.064Z,94.72
2022-09-20T23:04:07.874Z,94.54
2022-09-20T23:06:38.321Z,94.44
2022-09-20T23:09:07.947Z,94.27
2022-09-20T23:11:35.449Z,94.28
2022-09-20T23:14:04.932Z,94.54
2022-09-20T23:16:34.539Z,94.75
2022-09-20T23:19:02.233Z,95.12
2022-09-20T23:21:29.933Z,95.03
2022-09-20T23:23:58.728Z,94.86
2022-09-20T23:26:26.105Z,95.11
2022-09-20T23:28:55.971Z,95.28
2022-09-20T23:31:23.328Z,95.05
2022-09-20T23:33:58.175Z,94.76
2022-09-20T23:36:26.903Z,94.76
2022-09-20T23:38:53.641Z,94.46
2022-09-20T23:41:22.322Z,94.43
2022-09-20T23:43:49.589Z,94.40
2022-09-20T23:46:18.152Z,94.18
2022-09-20T23:48:44.981Z,94.11
2022-09-20T23:51:13.965Z,94.29
2022-09-20T23:53:41.177Z,94.53
2022-09-20T23:56:09.646Z,94.68
